createdAt,value
2022-12-08T00:01:41.168Z,12.18
2022-12-08T00:05:02.823Z,11.75
2022-12-08T00:08:24.381Z,11.98
2022-12-08T00:11:26.751Z,10.90
2022-12-08T00:14:30.877Z,11.43
2022-12-08T00:17:34.506Z,10.70
2022-12-08T00:20:37.010Z,10.32
2022-12-08T00:23:39.398Z,11.45
2022-12-08T00:26:41.723Z,11.63
2022-12-08T00:29:44.982Z,10.38
2022-12-08T00:32:48.688Z,11.55
2022-12-08T00:35:50.993Z,11.57
2022-12-08T00:38:53.256Z,10.82
2022-12-08T00:42:13.941Z,11.52
2022-12-08T00:45:16.359Z,11.85
2022-12-08T00:48:19.957Z,11.20
2022-12-08T00:51:22.161Z,11.93
2022-12-08T00:54:24.816Z,12.10
2022-12-08T00:57:27.129Z,12.35
2022-12-08T01:00:29.418Z,11.98
2022-12-08T01:03:33.618Z,11.27
2022-12-08T01:06:36.295Z,12.35
2022-12-08T01:09:38.627Z,11.75
2022-12-08T01:12:40.943Z,12.20
2022-12-08T01:15:43.177Z,11.68
2022-12-08T01:18:46.833Z,11.70
2022-12-08T01:21:49.385Z,12.07
2022-12-08T01:24:51.749Z,11.63
2022-12-08T01:27:54.074Z,10.85
2022-12-08T01:30:56.441Z,12.52
2022-12-08T01:34:00.038Z,11.13
2022-12-08T01:37:02.301Z,11.48
2022-12-08T01:40:06.856Z,11.75
2022-12-08T01:43:11.127Z,11.50
2022-12-08T01:46:13.522Z,12.13
2022-12-08T01:49:20.175Z,10.75
2022-12-08T01:52:27.339Z,9.52
2022-12-08T01:55:32.024Z,11.63
2022-12-08T01:58:36.934Z,9.73
2022-12-08T02:01:39.410Z,9.95
2022-12-08T02:04:43.138Z,9.63
2022-12-08T02:07:46.641Z,9.05
2022-12-08T02:10:49.413Z,9.88
2022-12-08T02:13:53.254Z,8.38
2022-12-08T02:17:00.201Z,8.55
2022-12-08T02:20:32.217Z,8.15
2022-12-08T02:23:44.385Z,8.52
2022-12-08T02:27:31.041Z,7.60
2022-12-08T02:30:38.747Z,7.35
2022-12-08T02:33:58.689Z,7.13
2022-12-08T02:37:08.278Z,7.72
2022-12-08T02:40:19.969Z,7.35
2022-12-08T02:43:28.351Z,7.80
2022-12-08T02:46:34.434Z,6.65
2022-12-08T02:49:38.115Z,7.55
2022-12-08T02:52:45.180Z,7.68
2022-12-08T02:55:56.358Z,6.38
2022-12-08T02:59:14.999Z,6.35
2022-12-08T03:02:29.695Z,7.28
2022-12-08T03:05:45.794Z,6.93
2022-12-08T03:08:52.045Z,6.70
2022-12-08T03:11:57.570Z,7.05
2022-12-08T03:15:03.794Z,7.45
2022-12-08T03:18:07.157Z,6.45
2022-12-08T03:21:11.254Z,7.28
2022-12-08T03:24:15.546Z,6.20
2022-12-08T03:27:20.222Z,6.45
2022-12-08T03:30:22.490Z,7.85
2022-12-08T03:33:27.826Z,6.13
2022-12-08T03:36:32.058Z,6.10
2022-12-08T03:39:34.289Z,6.32
2022-12-08T03:42:36.536Z,6.43
2022-12-08T03:45:38.751Z,6.32
2022-12-08T03:48:41.057Z,7.10
2022-12-08T03:51:44.773Z,6.40
2022-12-08T03:54:47.110Z,6.93
2022-12-08T03:57:49.373Z,6.03
2022-12-08T04:00:51.801Z,7.15
2022-12-08T04:03:54.514Z,6.07
2022-12-08T04:06:58.189Z,6.60
2022-12-08T04:10:00.552Z,6.65
2022-12-08T04:13:02.845Z,7.38
2022-12-08T04:16:06.312Z,6.38
2022-12-08T04:19:08.900Z,7.32
2022-12-08T04:22:12.622Z,5.85
2022-12-08T04:25:15.060Z,6.20
2022-12-08T04:28:17.442Z,6.25
2022-12-08T04:31:19.817Z,6.28
2022-12-08T04:34:22.245Z,6.50
2022-12-08T04:37:25.860Z,5.85
2022-12-08T04:40:28.264Z,6.70
2022-12-08T04:43:30.531Z,6.25
2022-12-08T04:46:32.886Z,7.25
2022-12-08T04:49:35.144Z,7.38
2022-12-08T04:52:39.260Z,6.85
2022-12-08T04:55:43.772Z,6.80
2022-12-08T04:58:46.043Z,7.00
2022-12-08T05:01:48.560Z,7.03
2022-12-08T05:04:50.861Z,5.97
2022-12-08T05:07:54.560Z,6.45
2022-12-08T05:11:02.170Z,6.97
2022-12-08T05:14:04.462Z,7.13
2022-12-08T05:17:09.655Z,7.80
2022-12-08T05:20:12.903Z,8.85
2022-12-08T05:23:16.595Z,8.55
2022-12-08T05:26:18.845Z,8.25
2022-12-08T05:29:21.182Z,8.57
2022-12-08T05:32:23.681Z,10.25
2022-12-08T05:35:25.936Z,9.32
2022-12-08T05:38:29.621Z,9.73
2022-12-08T05:41:32.111Z,12.10
2022-12-08T05:44:34.345Z,10.93
2022-12-08T05:47:36.661Z,10.77
2022-12-08T05:50:38.905Z,11.18
2022-12-08T05:53:43.073Z,12.13
2022-12-08T05:56:45.448Z,13.35
2022-12-08T05:59:47.679Z,11.88
2022-12-08T06:02:50.098Z,13.35
2022-12-08T06:05:52.502Z,11.13
2022-12-08T06:08:56.363Z,11.90
2022-12-08T06:11:58.635Z,12.27
2022-12-08T06:15:00.962Z,11.73
2022-12-08T06:18:03.711Z,11.70
2022-12-08T06:21:07.623Z,11.75
2022-12-08T06:24:11.837Z,11.02
2022-12-08T06:27:14.112Z,11.38
2022-12-08T06:30:17.115Z,10.90
2022-12-08T06:33:19.361Z,10.43
2022-12-08T06:36:22.982Z,10.85
2022-12-08T06:39:26.963Z,11.38
2022-12-08T06:42:44.446Z,10.38
2022-12-08T06:45:46.895Z,10.75
2022-12-08T06:48:50.643Z,11.40
2022-12-08T06:51:52.926Z,11.18
2022-12-08T06:54:56.600Z,10.70
2022-12-08T06:57:59.490Z,10.63
2022-12-08T07:01:06.634Z,11.20
2022-12-08T07:04:08.968Z,10.27
2022-12-08T07:07:11.248Z,8.63
2022-12-08T07:10:15.066Z,10.38
2022-12-08T07:13:17.377Z,10.15
2022-12-08T07:16:19.797Z,9.75
2022-12-08T07:19:22.906Z,11.80
2022-12-08T07:22:25.178Z,10.73
2022-12-08T07:25:28.826Z,9.25
2022-12-08T07:28:32.257Z,9.55
2022-12-08T07:31:34.778Z,10.75
2022-12-08T07:34:37.090Z,11.15
2022-12-08T07:37:39.469Z,10.15
2022-12-08T07:40:43.142Z,9.30
2022-12-08T07:43:45.928Z,9.20
2022-12-08T07:46:48.214Z,10.20
2022-12-08T07:49:50.597Z,9.85
2022-12-08T07:52:54.187Z,12.20
2022-12-08T07:55:58.303Z,9.65
2022-12-08T07:59:02.577Z,11.10
2022-12-08T08:02:23.601Z,10.35
2022-12-08T08:05:26.898Z,9.75
2022-12-08T08:08:29.282Z,8.20
2022-12-08T08:11:33.035Z,9.73
2022-12-08T08:14:35.379Z,8.77
2022-12-08T08:17:38.100Z,9.13
2022-12-08T08:20:41.056Z,8.32
2022-12-08T08:23:43.427Z,9.13
2022-12-08T08:26:47.580Z,9.90
2022-12-08T08:29:49.913Z,8.70
2022-12-08T08:32:52.366Z,9.85
2022-12-08T08:35:55.022Z,9.40
2022-12-08T08:38:57.318Z,9.40
2022-12-08T08:42:01.056Z,9.18
2022-12-08T08:45:03.786Z,9.35
2022-12-08T08:48:06.252Z,10.07
2022-12-08T08:51:09.674Z,8.68
2022-12-08T08:54:12.710Z,7.55
2022-12-08T08:57:18.466Z,8.45
2022-12-08T09:00:24.618Z,8.63
2022-12-08T09:03:27.671Z,8.55
2022-12-08T09:06:30.904Z,7.82
2022-12-08T09:09:33.221Z,8.25
2022-12-08T09:12:36.850Z,7.57
2022-12-08T09:15:39.283Z,7.72
2022-12-08T09:18:41.572Z,6.93
2022-12-08T09:21:43.957Z,7.05
2022-12-08T09:24:46.261Z,6.82
2022-12-08T09:27:49.994Z,5.47
2022-12-08T09:30:52.901Z,5.72
2022-12-08T09:33:55.255Z,5.40
2022-12-08T09:36:57.714Z,5.55
2022-12-08T09:40:00.047Z,5.95
2022-12-08T09:43:09.658Z,5.00
2022-12-08T09:46:14.881Z,5.82
2022-12-08T09:49:34.933Z,6.53
2022-12-08T09:52:42.058Z,5.10
2022-12-08T09:55:47.986Z,4.05
2022-12-08T09:58:54.046Z,4.57
2022-12-08T10:01:56.549Z,3.78
2022-12-08T10:04:59.530Z,3.65
2022-12-08T10:08:10.256Z,3.05
2022-12-08T10:11:16.911Z,2.78
2022-12-08T10:14:25.875Z,2.72
2022-12-08T10:17:42.395Z,2.75
2022-12-08T10:20:46.308Z,2.58
2022-12-08T10:23:50.905Z,3.75
2022-12-08T10:26:54.013Z,3.90
2022-12-08T10:29:57.682Z,4.05
2022-12-08T10:33:00.113Z,4.57
2022-12-08T10:36:04.625Z,5.63
2022-12-08T10:39:29.193Z,4.35
2022-12-08T10:42:35.696Z,5.20
2022-12-08T10:45:41.849Z,6.30
2022-12-08T10:48:49.530Z,5.93
2022-12-08T10:51:52.087Z,5.88
2022-12-08T10:54:54.775Z,5.80
2022-12-08T10:57:57.148Z,6.38
2022-12-08T11:01:04.372Z,5.88
2022-12-08T11:04:13.770Z,5.70
2022-12-08T11:07:21.959Z,5.70
2022-12-08T11:10:35.683Z,4.72
2022-12-08T11:13:41.511Z,4.20
2022-12-08T11:16:45.315Z,2.53
2022-12-08T11:19:57.286Z,1.58
2022-12-08T11:26:07.424Z,2.03
2022-12-08T11:29:11.111Z,2.17
2022-12-08T11:32:14.839Z,1.83
2022-12-08T11:35:23.184Z,1.98
2022-12-08T11:38:27.293Z,2.08
2022-12-08T11:41:32.349Z,1.95
2022-12-08T11:44:40.794Z,1.13
2022-12-08T11:47:54.162Z,1.00
2022-12-08T11:51:00.966Z,0.90
2022-12-08T11:54:14.100Z,2.08
2022-12-08T11:57:20.786Z,1.45
2022-12-08T12:00:23.419Z,1.38
2022-12-08T12:03:30.422Z,1.95
2022-12-08T12:07:13.335Z,2.45
2022-12-08T12:10:31.929Z,2.80
2022-12-08T12:13:48.157Z,4.03
2022-12-08T12:17:00.705Z,4.35
2022-12-08T12:20:12.272Z,4.50
2022-12-08T12:23:18.712Z,4.97
2022-12-08T12:26:23.145Z,5.07
2022-12-08T12:29:29.856Z,5.95
2022-12-08T12:32:45.769Z,6.00
2022-12-08T12:35:50.671Z,6.00
2022-12-08T12:39:06.172Z,7.07
2022-12-08T12:42:08.538Z,7.05
2022-12-08T12:45:26.030Z,8.57
2022-12-08T12:48:28.383Z,6.00
2022-12-08T12:51:45.550Z,6.70
2022-12-08T12:55:29.954Z,6.60
2022-12-08T12:58:42.410Z,6.30
2022-12-08T13:01:52.313Z,6.53
2022-12-08T13:04:58.492Z,5.57
2022-12-08T13:08:03.143Z,5.18
2022-12-08T13:11:11.028Z,6.03
2022-12-08T13:14:30.185Z,4.53
2022-12-08T13:17:34.234Z,6.13
2022-12-08T13:20:52.866Z,4.57
2022-12-08T13:24:14.065Z,4.20
2022-12-08T13:27:34.068Z,4.73
2022-12-08T13:30:44.302Z,4.47
2022-12-08T13:33:49.691Z,4.65
2022-12-08T13:37:07.675Z,4.18
2022-12-08T13:40:16.392Z,4.32
2022-12-08T13:43:38.755Z,4.00
2022-12-08T13:57:11.043Z,3.92
2022-12-08T14:00:19.877Z,3.72
2022-12-08T14:03:22.191Z,3.20
2022-12-08T14:06:28.970Z,3.58
2022-12-08T14:09:35.028Z,2.63
2022-12-08T14:12:37.553Z,3.00
2022-12-08T14:15:41.469Z,2.85
2022-12-08T14:18:43.878Z,3.60
2022-12-08T14:21:57.408Z,3.38
2022-12-08T14:24:59.751Z,3.15
2022-12-08T14:28:03.987Z,2.95
2022-12-08T14:31:08.693Z,3.30
2022-12-08T14:34:11.099Z,3.28
2022-12-08T14:37:13.751Z,2.70
2022-12-08T14:40:23.473Z,2.95
2022-12-08T14:43:29.231Z,3.03
2022-12-08T14:46:33.048Z,3.50
2022-12-08T14:49:37.641Z,3.15
2022-12-08T14:52:43.358Z,2.85
2022-12-08T14:55:47.701Z,3.67
2022-12-08T14:58:51.850Z,3.90
2022-12-08T15:02:13.884Z,2.88
2022-12-08T15:08:20.151Z,3.28
2022-12-08T15:11:31.623Z,3.55
2022-12-08T15:14:36.981Z,2.88
2022-12-08T15:17:55.855Z,3.08
2022-12-08T15:21:18.228Z,3.58
2022-12-08T15:25:40.256Z,3.33
2022-12-08T15:30:03.536Z,3.67
2022-12-08T15:38:04.698Z,3.47
2022-12-08T15:41:58.199Z,3.70
2022-12-08T15:49:12.699Z,3.92
2022-12-08T15:53:36.104Z,3.22
2022-12-08T16:03:13.210Z,3.58
2022-12-08T16:11:29.247Z,3.88
2022-12-08T16:15:47.178Z,3.65
2022-12-08T16:18:31.468Z,3.83
2022-12-08T16:25:05.025Z,3.63
2022-12-08T16:28:52.116Z,3.65
2022-12-08T16:31:40.556Z,4.30
2022-12-08T16:34:43.351Z,4.07
2022-12-08T16:37:54.430Z,4.03
2022-12-08T16:41:15.185Z,4.65
2022-12-08T16:44:17.674Z,4.40
2022-12-08T16:47:19.970Z,4.40
2022-12-08T16:50:23.884Z,3.85
2022-12-08T16:53:27.505Z,3.72
2022-12-08T16:56:33.071Z,4.00
2022-12-08T16:59:37.604Z,4.60
2022-12-08T17:02:40.068Z,3.83
2022-12-08T17:05:42.756Z,4.63
2022-12-08T17:08:46.574Z,4.35
2022-12-08T17:11:48.910Z,4.43
2022-12-08T17:14:51.174Z,4.50
2022-12-08T17:17:54.127Z,4.45
2022-12-08T17:20:56.396Z,5.03
2022-12-08T17:24:00.181Z,4.82
2022-12-08T17:27:06.381Z,4.75
2022-12-08T17:30:11.832Z,5.28
2022-12-08T17:33:14.716Z,5.93
2022-12-08T17:36:17.515Z,5.38
2022-12-08T17:39:21.287Z,4.38
2022-12-08T17:42:26.084Z,7.03
2022-12-08T17:45:28.798Z,5.97
2022-12-08T17:48:31.261Z,4.95
2022-12-08T17:51:33.638Z,4.15
2022-12-08T17:54:37.717Z,4.22
2022-12-08T17:57:40.252Z,4.47
2022-12-08T18:00:42.744Z,3.67
2022-12-08T18:03:45.177Z,4.88
2022-12-08T18:06:47.597Z,5.30
2022-12-08T18:09:51.523Z,6.15
2022-12-08T18:12:53.999Z,3.92
2022-12-08T18:15:56.383Z,5.13
2022-12-08T18:18:59.075Z,5.05
2022-12-08T18:22:01.829Z,5.53
2022-12-08T18:25:06.871Z,5.20
2022-12-08T18:28:10.637Z,6.43
2022-12-08T18:31:16.119Z,5.07
2022-12-08T18:34:21.393Z,4.90
2022-12-08T18:37:23.773Z,4.53
2022-12-08T18:40:27.863Z,3.97
2022-12-08T18:43:30.536Z,4.57
2022-12-08T18:46:32.911Z,4.28
2022-12-08T18:49:39.355Z,4.90
2022-12-08T18:52:42.100Z,4.47
2022-12-08T18:55:46.734Z,6.00
2022-12-08T18:58:49.383Z,4.75
2022-12-08T19:01:51.703Z,4.40
2022-12-08T19:04:55.378Z,4.38
2022-12-08T19:07:57.928Z,5.57
2022-12-08T19:11:01.850Z,4.63
2022-12-08T19:14:05.103Z,4.53
2022-12-08T19:17:09.154Z,5.90
2022-12-08T19:20:15.369Z,5.43
2022-12-08T19:23:17.704Z,5.70
2022-12-08T19:26:22.608Z,5.25
2022-12-08T19:29:27.191Z,4.15
2022-12-08T19:32:32.485Z,5.45
2022-12-08T19:35:40.478Z,5.72
2022-12-08T19:39:03.081Z,5.53
2022-12-08T19:42:31.889Z,5.07
2022-12-08T19:45:36.384Z,5.32
2022-12-08T19:48:38.816Z,5.38
2022-12-08T19:51:41.163Z,7.60
2022-12-08T19:54:43.864Z,4.93
2022-12-08T19:57:47.606Z,5.45
2022-12-08T20:00:50.163Z,5.38
2022-12-08T20:03:52.721Z,6.22
2022-12-08T20:06:56.459Z,5.72
2022-12-08T20:10:04.019Z,5.43
2022-12-08T20:13:27.173Z,6.18
2022-12-08T20:16:29.921Z,6.22
2022-12-08T20:19:32.337Z,4.97
2022-12-08T20:22:34.713Z,6.43
2022-12-08T20:25:38.695Z,6.78
2022-12-08T20:28:42.920Z,5.85
2022-12-08T20:31:46.763Z,6.65
2022-12-08T20:34:49.411Z,6.28
2022-12-08T20:37:51.842Z,7.32
2022-12-08T20:40:54.382Z,6.40
2022-12-08T20:43:58.019Z,7.65
2022-12-08T20:47:00.382Z,8.52
2022-12-08T20:50:04.684Z,7.80
2022-12-08T20:53:07.632Z,6.68
2022-12-08T20:56:14.576Z,6.68
2022-12-08T20:59:18.644Z,6.22
2022-12-08T21:02:21.153Z,7.00
2022-12-08T21:05:23.545Z,9.50
2022-12-08T21:08:25.910Z,7.40
2022-12-08T21:11:28.440Z,6.32
2022-12-08T21:14:32.131Z,7.88
2022-12-08T21:17:34.448Z,6.55
2022-12-08T21:20:37.037Z,7.57
2022-12-08T21:23:39.655Z,7.18
2022-12-08T21:26:42.003Z,7.03
2022-12-08T21:29:46.090Z,7.68
2022-12-08T21:32:48.493Z,6.88
2022-12-08T21:35:51.147Z,7.35
2022-12-08T21:38:55.006Z,6.65
2022-12-08T21:42:17.460Z,7.82
2022-12-08T21:45:22.655Z,7.30
2022-12-08T21:48:26.413Z,6.95
2022-12-08T21:51:29.209Z,7.25
2022-12-08T21:54:31.846Z,7.78
2022-12-08T21:57:34.533Z,7.00
2022-12-08T22:00:38.480Z,7.45
2022-12-08T22:03:41.883Z,6.78
2022-12-08T22:06:44.531Z,7.97
2022-12-08T22:09:47.403Z,7.95
2022-12-08T22:12:50.145Z,7.35
2022-12-08T22:15:57.534Z,8.43
2022-12-08T22:19:00.212Z,7.78
2022-12-08T22:22:02.702Z,7.75
2022-12-08T22:25:06.419Z,8.15
2022-12-08T22:28:09.206Z,7.78
2022-12-08T22:31:14.822Z,6.75
2022-12-08T22:34:17.222Z,8.20
2022-12-08T22:37:19.709Z,8.20
2022-12-08T22:40:22.413Z,8.30
2022-12-08T22:43:25.207Z,7.70
2022-12-08T22:46:29.348Z,7.20
2022-12-08T22:49:31.726Z,6.88
2022-12-08T22:52:35.666Z,6.80
2022-12-08T22:55:41.208Z,7.35
2022-12-08T22:58:44.482Z,7.18
2022-12-08T23:01:48.365Z,7.40
2022-12-08T23:04:51.064Z,7.75
2022-12-08T23:07:53.897Z,7.35
2022-12-08T23:10:56.527Z,7.93
2022-12-08T23:14:00.356Z,7.15
2022-12-08T23:17:04.386Z,8.38
2022-12-08T23:20:08.221Z,7.25
2022-12-08T23:23:10.828Z,6.88
2022-12-08T23:26:18.472Z,7.70
2022-12-08T23:29:20.778Z,7.68
2022-12-08T23:32:24.913Z,6.97
2022-12-08T23:35:27.336Z,8.52
2022-12-08T23:38:29.862Z,7.20
2022-12-08T23:41:32.228Z,7.97
2022-12-08T23:44:34.548Z,8.38
2022-12-08T23:47:38.165Z,9.18
2022-12-08T23:50:40.487Z,8.30
2022-12-08T23:53:43.090Z,9.20
2022-12-08T23:56:45.456Z,8.32
2022-12-08T23:59:47.722Z,9.02
